Time;durP1;ratioP1;P1;durP2;ratioP2;P2;SDS_P1;SDS_P2;PMS_P1;PMS_P2;Temp;Humidity;BMP_temperature;BMP_pressure;BME280_temperature;BME280_humidity;BME280_pressure;Samples;Min_cycle;Max_cycle;Signal;HPM_P1;HPM_P2
2022/12/22 03:28:03;;;;;;;1.38;1.27;;;5.40;99.90;;;;;;5077171;28;20039;-40
2022/12/22 03:30:28;;;;;;;1.65;1.55;;;5.40;99.90;;;;;;5084220;28;20037;-39
2022/12/22 03:32:54;;;;;;;1.50;1.40;;;5.50;99.90;;;;;;5069796;28;20456;-32
2022/12/22 03:35:19;;;;;;;1.50;1.40;;;5.50;99.90;;;;;;5072438;28;20424;-37
2022/12/22 03:37:45;;;;;;;1.35;1.25;;;5.70;99.90;;;;;;5065835;28;20024;-40
2022/12/22 03:40:11;;;;;;;1.52;1.10;;;5.70;99.90;;;;;;5074311;28;20024;-40
2022/12/22 03:48:05;;;;;;;1.98;1.80;;;5.70;99.90;;;;;;5073700;28;20307;-40
2022/12/22 03:50:30;;;;;;;1.95;1.58;;;5.70;99.90;;;;;;5074173;28;20063;-37
2022/12/22 03:52:56;;;;;;;2.30;2.10;;;5.80;99.90;;;;;;5073694;28;20031;-40
2022/12/22 03:55:21;;;;;;;2.33;2.03;;;5.80;99.90;;;;;;5077211;28;20366;-41
2022/12/22 03:57:47;;;;;;;2.75;2.05;;;5.80;99.90;;;;;;5072459;28;20060;-35
2022/12/22 04:00:13;;;;;;;3.05;2.25;;;5.90;99.90;;;;;;5069321;28;20023;-40
2022/12/22 04:02:39;;;;;;;1.50;1.40;;;5.90;99.90;;;;;;5076445;28;20137;-40
2022/12/22 04:05:05;;;;;;;4.20;2.50;;;6.00;99.90;;;;;;5072162;28;20163;-40
2022/12/22 04:07:30;;;;;;;1.75;1.65;;;6.00;99.90;;;;;;5074135;28;20632;-41
2022/12/22 04:12:55;;;;;;;3.17;2.13;;;6.20;99.90;;;;;;5073222;28;20090;-40
2022/12/22 04:15:22;;;;;;;2.50;2.10;;;6.10;99.90;;;;;;5077161;28;20605;-40
2022/12/22 04:17:48;;;;;;;3.03;2.20;;;6.10;99.90;;;;;;5070908;28;20032;-39
2022/12/22 04:20:14;;;;;;;1.00;1.00;;;6.20;99.90;;;;;;5073520;28;20028;-40
2022/12/22 04:22:39;;;;;;;2.67;2.42;;;6.30;99.90;;;;;;5065490;28;20035;-40
2022/12/22 04:25:06;;;;;;;2.38;2.17;;;6.30;99.90;;;;;;5077644;28;20599;-40
2022/12/22 04:27:31;;;;;;;3.60;2.35;;;6.30;99.90;;;;;;5072282;28;20020;-39
2022/12/22 04:29:57;;;;;;;1.02;1.02;;;6.30;99.90;;;;;;5069539;28;20047;-38
2022/12/22 04:32:22;;;;;;;2.17;1.88;;;6.30;99.90;;;;;;5068497;28;20043;-37
2022/12/22 04:34:48;;;;;;;1.92;1.70;;;6.30;99.90;;;;;;5073066;28;20038;-38
2022/12/22 04:37:13;;;;;;;2.47;2.28;;;6.30;99.90;;;;;;5077257;28;20391;-39
2022/12/22 04:39:39;;;;;;;4.25;2.25;;;6.50;99.90;;;;;;5073118;28;20036;-39
2022/12/22 04:42:04;;;;;;;3.47;2.15;;;6.50;99.90;;;;;;5077693;28;20488;-40
2022/12/22 04:44:30;;;;;;;3.10;2.45;;;6.40;99.90;;;;;;5069771;28;20038;-39
2022/12/22 04:46:56;;;;;;;2.38;1.92;;;6.50;99.90;;;;;;5080925;28;20576;-40
2022/12/22 04:49:21;;;;;;;2.78;2.30;;;6.50;99.90;;;;;;5072516;28;20509;-40
2022/12/22 04:51:47;;;;;;;1.98;1.80;;;6.50;99.90;;;;;;5080006;28;20054;-39
2022/12/22 04:54:12;;;;;;;3.20;1.80;;;6.50;99.90;;;;;;5071642;28;20741;-41
2022/12/22 04:56:38;;;;;;;2.20;2.00;;;6.60;99.90;;;;;;5076120;28;20044;-39
2022/12/22 04:59:03;;;;;;;3.10;2.58;;;6.60;99.90;;;;;;5067261;28;20424;-38
2022/12/22 05:01:29;;;;;;;3.13;2.17;;;6.60;99.90;;;;;;5073084;28;20040;-39
2022/12/22 05:03:55;;;;;;;1.90;1.80;;;6.60;99.90;;;;;;5073620;28;20109;-40
2022/12/22 05:06:20;;;;;;;2.13;1.92;;;6.60;99.90;;;;;;5082240;28;20028;-38
2022/12/22 05:08:46;;;;;;;3.08;1.80;;;6.60;99.90;;;;;;5074771;28;20033;-40
2022/12/22 05:11:11;;;;;;;2.25;1.95;;;6.60;99.90;;;;;;5074000;28;20554;-40
2022/12/22 05:13:37;;;;;;;2.60;1.58;;;6.60;99.90;;;;;;5081099;28;20055;-40
2022/12/22 05:16:05;;;;;;;3.28;2.00;;;6.50;99.90;;;;;;5070367;28;20063;-39
2022/12/22 05:18:31;;;;;;;1.17;1.15;;;6.40;99.90;;;;;;5069620;28;20062;-39
2022/12/22 05:20:57;;;;;;;2.72;1.85;;;6.50;99.90;;;;;;5074733;28;20551;-36
2022/12/22 05:23:23;;;;;;;2.33;2.13;;;6.50;99.90;;;;;;5074901;28;20131;-39
2022/12/22 05:25:48;;;;;;;2.47;2.30;;;6.50;99.90;;;;;;5072639;28;20486;-41
2022/12/22 05:28:14;;;;;;;1.55;1.45;;;6.60;99.90;;;;;;5069017;28;20040;-35
2022/12/22 05:30:40;;;;;;;1.30;1.20;;;6.60;99.90;;;;;;5068286;28;20079;-37
2022/12/22 05:33:06;;;;;;;1.48;1.40;;;6.80;99.90;;;;;;5072668;28;20036;-39
2022/12/22 05:35:31;;;;;;;1.63;1.52;;;7.00;99.90;;;;;;5065788;28;20054;-41
2022/12/22 05:37:57;;;;;;;1.90;1.67;;;6.90;99.90;;;;;;5071760;28;20542;-38
2022/12/22 05:40:22;;;;;;;1.52;1.45;;;7.00;99.90;;;;;;5070662;28;20025;-37
2022/12/22 05:42:48;;;;;;;1.67;1.40;;;7.00;99.90;;;;;;5073521;28;20036;-38
2022/12/22 05:45:19;;;;;;;1.92;1.50;;;6.90;99.90;;;;;;5072666;28;20433;-40
2022/12/22 05:47:47;;;;;;;1.23;1.20;;;6.90;99.90;;;;;;5071662;28;20036;-37
2022/12/22 05:50:15;;;;;;;2.47;1.67;;;6.90;99.90;;;;;;5068049;28;20032;-38
2022/12/22 05:52:41;;;;;;;1.13;1.02;;;6.90;99.90;;;;;;5069890;28;20028;-35
2022/12/22 05:55:07;;;;;;;0.88;0.88;;;7.00;99.90;;;;;;5065141;28;20035;-38
2022/12/22 05:57:34;;;;;;;2.75;1.58;;;7.00;99.90;;;;;;5063888;28;20036;-37
2022/12/22 05:59:59;;;;;;;1.60;1.40;;;7.10;99.90;;;;;;5068597;28;20032;-37
2022/12/22 06:02:25;;;;;;;1.50;1.40;;;7.10;99.90;;;;;;5064944;28;20051;-39
2022/12/22 06:04:51;;;;;;;1.25;1.25;;;7.10;99.90;;;;;;5069746;28;20056;-40
2022/12/22 06:07:17;;;;;;;1.00;1.00;;;7.10;99.90;;;;;;5075630;28;20109;-38
2022/12/22 06:09:42;;;;;;;2.15;1.30;;;7.10;99.90;;;;;;5069264;28;20032;-41
2022/12/22 06:12:08;;;;;;;2.10;1.17;;;7.00;99.90;;;;;;5072680;28;20044;-39
2022/12/22 06:14:34;;;;;;;1.27;1.17;;;7.20;99.90;;;;;;5073074;28;20048;-37
2022/12/22 06:16:59;;;;;;;1.25;1.15;;;7.20;99.90;;;;;;5069359;28;20043;-40
2022/12/22 06:19:25;;;;;;;1.48;1.30;;;7.20;99.90;;;;;;5066405;28;20588;-39
2022/12/22 06:21:50;;;;;;;1.05;0.93;;;7.20;99.90;;;;;;5065636;28;20044;-32
2022/12/22 06:24:16;;;;;;;1.58;1.48;;;7.20;99.90;;;;;;5067133;28;20025;-39
2022/12/22 06:26:42;;;;;;;1.30;1.20;;;7.20;99.90;;;;;;5062709;28;20062;-36
2022/12/22 06:29:07;;;;;;;1.08;1.08;;;7.20;99.90;;;;;;5069819;28;20072;-35
2022/12/22 06:31:33;;;;;;;1.10;1.00;;;7.20;99.90;;;;;;5071597;28;20066;-42
2022/12/22 06:33:59;;;;;;;1.10;1.10;;;7.10;99.90;;;;;;5068009;28;20489;-39
2022/12/22 06:36:24;;;;;;;0.98;0.98;;;7.20;99.90;;;;;;5071947;28;20513;-39
2022/12/22 06:38:50;;;;;;;0.80;0.80;;;7.30;99.90;;;;;;5073144;28;20039;-38
2022/12/22 06:43:07;;;;;;;2.47;1.20;;;7.20;99.90;;;;;;5074842;28;20118;-41
2022/12/22 06:44:01;;;;;;;1.00;1.00;;;7.20;99.90;;;;;;5076913;28;20374;-39
2022/12/22 06:46:27;;;;;;;1.20;1.17;;;7.20;99.90;;;;;;5066903;28;20035;-41
2022/12/22 06:48:52;;;;;;;1.30;1.20;;;7.20;99.90;;;;;;5077599;28;20044;-41
2022/12/22 06:51:18;;;;;;;1.63;0.88;;;7.20;99.90;;;;;;5072005;28;20032;-41
2022/12/22 06:53:43;;;;;;;1.05;1.05;;;7.30;99.90;;;;;;5076687;28;20023;-39
2022/12/22 06:56:09;;;;;;;2.63;1.35;;;7.20;99.90;;;;;;5068180;28;20024;-39
2022/12/22 06:58:34;;;;;;;1.73;1.20;;;7.10;99.90;;;;;;5077275;28;20488;-41
2022/12/22 07:01:00;;;;;;;0.60;0.60;;;7.00;99.90;;;;;;5069647;28;20083;-38
2022/12/22 07:03:26;;;;;;;2.92;1.25;;;7.10;99.90;;;;;;5070368;28;20473;-42
2022/12/22 07:05:51;;;;;;;1.15;1.05;;;7.10;99.90;;;;;;5069005;28;20615;-42
2022/12/22 07:08:17;;;;;;;0.90;0.90;;;7.10;99.90;;;;;;5077768;28;20039;-40
2022/12/22 07:10:58;;;;;;;1.65;0.90;;;7.30;99.90;;;;;;5074663;28;20048;-42
2022/12/22 07:13:32;;;;;;;1.60;1.13;;;7.30;99.90;;;;;;5081081;28;20660;-39
2022/12/22 07:15:59;;;;;;;1.08;1.00;;;7.30;99.90;;;;;;5070723;28;20028;-36
2022/12/22 07:18:25;;;;;;;1.90;1.45;;;7.40;99.90;;;;;;5078736;28;20035;-40
2022/12/22 07:20:51;;;;;;;0.90;0.90;;;7.40;99.90;;;;;;5073039;28;20020;-41
2022/12/22 07:23:17;;;;;;;1.65;1.08;;;7.50;99.90;;;;;;5074514;28;20043;-41
2022/12/22 07:25:42;;;;;;;0.80;0.80;;;7.40;99.90;;;;;;5072424;28;20035;-39
2022/12/22 07:28:08;;;;;;;1.05;1.02;;;7.60;99.90;;;;;;5079520;28;20031;-41
2022/12/22 07:30:35;;;;;;;1.65;1.55;;;7.60;99.90;;;;;;5069678;28;20047;-41
2022/12/22 07:33:04;;;;;;;0.73;0.73;;;8.00;99.90;;;;;;5071360;28;20052;-40
2022/12/22 07:35:30;;;;;;;1.92;1.10;;;8.10;99.90;;;;;;5079124;28;20028;-41
2022/12/22 07:37:55;;;;;;;1.17;0.90;;;8.30;99.90;;;;;;5072052;28;20066;-40
2022/12/22 07:40:21;;;;;;;1.88;1.17;;;8.30;99.90;;;;;;5075834;28;20093;-33
2022/12/22 07:42:47;;;;;;;1.55;1.00;;;8.20;99.90;;;;;;5076893;28;20024;-41
2022/12/22 07:45:17;;;;;;;2.28;1.33;;;8.20;99.90;;;;;;5074620;28;20389;-40
2022/12/22 07:47:44;;;;;;;1.25;1.13;;;8.40;99.90;;;;;;5068786;28;20099;-40
2022/12/22 07:50:28;;;;;;;1.08;0.70;;;8.60;99.90;;;;;;5075721;28;20032;-40
2022/12/22 07:52:56;;;;;;;0.80;0.80;;;8.40;99.90;;;;;;5071935;28;20028;-36
2022/12/22 07:55:23;;;;;;;1.77;0.98;;;8.30;99.90;;;;;;5080012;28;20064;-37
2022/12/22 07:57:49;;;;;;;1.20;1.10;;;8.40;99.90;;;;;;5076416;28;20020;-40
2022/12/22 08:00:15;;;;;;;4.72;1.45;;;8.20;99.90;;;;;;5069483;28;20093;-38
2022/12/22 08:02:41;;;;;;;0.88;0.88;;;8.30;99.90;;;;;;5065590;28;20032;-40
2022/12/22 08:05:07;;;;;;;0.90;0.90;;;8.40;99.90;;;;;;5076609;28;20746;-41
2022/12/22 08:07:33;;;;;;;1.02;0.77;;;8.40;99.90;;;;;;5074152;28;20112;-38
2022/12/22 08:09:59;;;;;;;0.80;0.80;;;8.50;99.90;;;;;;5082272;28;20131;-39
2022/12/22 08:12:24;;;;;;;0.90;0.90;;;8.30;99.90;;;;;;5074980;28;20036;-40
2022/12/22 08:14:50;;;;;;;2.88;1.00;;;8.40;99.90;;;;;;5075323;28;20401;-39
2022/12/22 08:17:16;;;;;;;1.00;1.00;;;8.50;99.90;;;;;;5072440;28;20114;-40
2022/12/22 08:19:42;;;;;;;0.93;0.85;;;8.40;99.90;;;;;;5074087;28;20067;-41
2022/12/22 08:22:07;;;;;;;0.77;0.77;;;8.60;99.90;;;;;;5075451;28;20055;-41
2022/12/22 08:24:35;;;;;;;0.80;0.80;;;8.60;99.90;;;;;;5082324;28;20408;-37
2022/12/22 08:27:07;;;;;;;3.40;0.88;;;8.60;99.90;;;;;;5074398;28;20066;-40
2022/12/22 08:29:37;;;;;;;4.75;1.10;;;8.60;99.90;;;;;;5079198;28;20040;-41
2022/12/22 08:32:03;;;;;;;3.83;1.20;;;8.80;99.90;;;;;;5079674;28;20448;-41
2022/12/22 08:34:29;;;;;;;2.15;1.40;;;8.70;99.90;;;;;;5074556;28;20044;-40
2022/12/22 08:36:58;;;;;;;2.40;0.80;;;8.70;99.90;;;;;;5068442;28;20435;-37
2022/12/22 08:39:26;;;;;;;2.42;1.05;;;8.70;99.90;;;;;;5073837;28;20106;-36
2022/12/22 08:41:52;;;;;;;2.65;1.38;;;8.80;99.90;;;;;;5070258;28;20024;-39
2022/12/22 08:44:23;;;;;;;0.80;0.80;;;8.70;99.90;;;;;;5075866;28;20426;-34
2022/12/22 08:46:50;;;;;;;4.70;1.05;;;8.90;99.90;;;;;;5069718;28;20028;-40
2022/12/22 08:49:16;;;;;;;1.17;1.05;;;8.80;99.90;;;;;;5067532;28;20074;-39
2022/12/22 08:51:42;;;;;;;3.90;1.25;;;8.70;99.90;;;;;;5061384;28;20414;-35
2022/12/22 08:54:08;;;;;;;1.00;0.82;;;8.70;99.90;;;;;;5066553;28;20029;-39
2022/12/22 08:56:34;;;;;;;1.63;0.90;;;8.70;99.90;;;;;;5074081;28;20032;-40
2022/12/22 08:59:04;;;;;;;3.78;1.17;;;8.80;99.90;;;;;;5071441;28;20098;-40
2022/12/22 09:01:31;;;;;;;2.72;0.70;;;8.80;99.90;;;;;;5074038;28;20125;-40
2022/12/22 09:03:57;;;;;;;1.10;1.10;;;8.70;99.90;;;;;;5074485;28;20036;-41
2022/12/22 09:06:24;;;;;;;1.58;1.00;;;8.70;99.90;;;;;;5079506;28;20140;-34
2022/12/22 09:08:57;;;;;;;3.97;1.40;;;8.80;99.90;;;;;;5074458;28;20127;-36
2022/12/22 09:11:24;;;;;;;2.22;0.80;;;8.70;99.90;;;;;;5074738;28;20020;-41
2022/12/22 09:13:54;;;;;;;1.30;0.80;;;8.60;99.90;;;;;;5082567;28;20032;-41
2022/12/22 09:16:21;;;;;;;2.95;1.00;;;8.70;99.90;;;;;;5078995;28;20039;-40
2022/12/22 09:18:47;;;;;;;3.67;1.10;;;8.80;99.90;;;;;;5076531;28;20041;-41
2022/12/22 09:21:13;;;;;;;2.55;1.20;;;9.00;99.90;;;;;;5076499;28;20039;-41
2022/12/22 09:23:39;;;;;;;1.00;1.00;;;9.00;99.90;;;;;;5075758;28;20505;-39
2022/12/22 09:26:08;;;;;;;4.45;1.40;;;9.00;99.90;;;;;;5069643;28;20064;-38
2022/12/22 09:28:35;;;;;;;1.52;0.68;;;9.10;99.90;;;;;;5074398;28;20047;-41
2022/12/22 09:31:00;;;;;;;0.40;0.40;;;9.10;99.90;;;;;;5069991;28;20058;-38
2022/12/22 09:33:26;;;;;;;5.68;1.02;;;9.30;99.90;;;;;;5075507;28;20436;-35
2022/12/22 09:35:52;;;;;;;3.45;1.13;;;9.30;99.90;;;;;;5073827;28;20134;-41
2022/12/22 09:38:17;;;;;;;1.10;1.00;;;9.40;99.90;;;;;;5073778;28;20025;-33
2022/12/22 09:40:43;;;;;;;4.32;1.30;;;9.50;99.90;;;;;;5074691;28;20028;-37
2022/12/22 09:43:14;;;;;;;0.50;0.50;;;9.50;99.90;;;;;;5074710;28;20182;-38
2022/12/22 09:45:40;;;;;;;2.53;1.20;;;9.60;99.90;;;;;;5078123;28;20055;-39
2022/12/22 09:48:10;;;;;;;2.78;1.13;;;9.60;99.90;;;;;;5069945;28;20533;-40
2022/12/22 09:50:38;;;;;;;1.73;0.93;;;9.50;99.90;;;;;;5071920;28;20043;-39
2022/12/22 09:53:07;;;;;;;3.70;1.70;;;9.50;99.90;;;;;;5075664;28;20044;-40
2022/12/22 09:55:39;;;;;;;;;;;9.60;99.90;;;;;;5075647;28;20058;-40
2022/12/22 09:58:19;;;;;;;1.35;0.90;;;9.60;99.90;;;;;;5075754;28;19915;-40
2022/12/22 10:00:50;;;;;;;1.10;1.05;;;9.60;99.90;;;;;;5077397;28;20024;-40
2022/12/22 10:03:42;;;;;;;1.33;1.00;;;9.50;99.90;;;;;;5079953;28;20028;-37
2022/12/22 10:06:35;;;;;;;1.75;0.90;;;9.50;99.90;;;;;;5078875;28;20070;-39
2022/12/22 10:09:13;;;;;;;2.00;0.82;;;9.30;99.90;;;;;;5084503;28;20028;-40
2022/12/22 10:11:38;;;;;;;1.05;0.80;;;9.20;99.90;;;;;;5078486;28;20914;-40
2022/12/22 10:14:04;;;;;;;2.80;1.10;;;9.00;99.90;;;;;;5080432;28;20039;-37
2022/12/22 10:16:29;;;;;;;2.90;1.08;;;9.10;99.90;;;;;;5078325;28;20016;-35
2022/12/22 10:19:08;;;;;;;1.60;1.08;;;9.00;99.90;;;;;;5080540;28;20103;-40
2022/12/22 10:21:33;;;;;;;0.90;0.65;;;9.00;99.90;;;;;;5081569;28;20119;-40
2022/12/22 10:23:59;;;;;;;1.95;0.93;;;8.90;99.90;;;;;;5080843;28;20107;-35
2022/12/22 10:26:28;;;;;;;1.88;1.13;;;9.00;99.90;;;;;;5076782;28;20052;-39
2022/12/22 10:28:54;;;;;;;1.10;0.70;;;9.10;99.90;;;;;;5074182;28;20044;-38
2022/12/22 10:31:32;;;;;;;1.30;0.90;;;9.10;99.90;;;;;;5079546;28;20034;-40
2022/12/22 10:34:11;;;;;;;4.70;1.17;;;9.50;99.90;;;;;;5079591;28;20020;-38
2022/12/22 10:36:38;;;;;;;1.05;1.05;;;9.60;99.90;;;;;;5073995;28;20386;-40
2022/12/22 10:39:09;;;;;;;1.77;1.17;;;9.70;99.90;;;;;;5077680;28;20056;-40
2022/12/22 10:41:36;;;;;;;0.73;0.73;;;9.70;99.90;;;;;;5076212;28;20028;-40
2022/12/22 10:44:18;;;;;;;1.02;1.02;;;9.60;99.90;;;;;;5079641;28;20024;-40
2022/12/22 10:46:50;;;;;;;1.02;1.02;;;9.50;99.90;;;;;;5077609;28;20043;-40
2022/12/22 10:49:25;;;;;;;2.97;0.95;;;9.40;99.90;;;;;;5080193;28;20453;-40
2022/12/22 10:51:54;;;;;;;1.17;0.93;;;9.40;99.90;;;;;;5078712;28;20021;-40
2022/12/22 10:54:34;;;;;;;3.03;1.30;;;9.30;99.90;;;;;;5078823;28;20036;-39
2022/12/22 10:57:20;;;;;;;1.88;1.40;;;9.30;99.90;;;;;;5079929;28;20483;-39
2022/12/22 10:59:50;;;;;;;1.05;0.82;;;9.20;99.90;;;;;;5082773;28;20035;-40
2022/12/22 11:02:22;;;;;;;2.28;0.95;;;9.10;99.90;;;;;;5079512;28;20497;-41
2022/12/22 11:04:49;;;;;;;1.23;1.15;;;8.90;99.90;;;;;;5075973;28;20103;-39
2022/12/22 11:07:15;;;;;;;2.47;1.30;;;8.80;99.90;;;;;;5076984;28;20028;-40
2022/12/22 11:09:41;;;;;;;3.08;1.40;;;8.80;99.90;;;;;;5080347;28;20090;-39
2022/12/22 11:12:16;;;;;;;1.10;1.10;;;8.80;99.90;;;;;;5079168;28;20099;-40
2022/12/22 11:14:54;;;;;;;1.83;0.80;;;8.90;99.90;;;;;;5055136;28;20075;-41
2022/12/22 11:17:48;;;;;;;0.80;0.80;;;8.90;99.90;;;;;;5052065;28;20029;-40
2022/12/22 11:20:20;;;;;;;1.80;0.77;;;8.90;99.90;;;;;;5057104;28;20115;-40
2022/12/22 11:23:14;;;;;;;1.48;0.90;;;9.00;99.90;;;;;;5059028;28;20041;-40
2022/12/22 11:25:40;;;;;;;1.33;1.13;;;9.10;99.90;;;;;;5054332;28;20071;-42
2022/12/22 11:28:50;;;;;;;3.65;1.10;;;9.20;99.90;;;;;;5056936;28;20501;-41
2022/12/22 11:31:40;;;;;;;5.47;1.20;;;9.30;99.90;;;;;;5038378;28;20025;-39
2022/12/22 11:34:22;;;;;;;1.08;1.00;;;9.20;99.90;;;;;;5054207;28;20195;-41
2022/12/22 11:37:01;;;;;;;0.80;0.60;;;9.30;99.90;;;;;;5054630;28;20488;-40
2022/12/22 11:39:33;;;;;;;0.75;0.75;;;9.20;99.90;;;;;;5051530;28;20068;-40
2022/12/22 11:42:21;;;;;;;1.75;0.98;;;9.20;99.90;;;;;;5060415;28;20032;-42
2022/12/22 11:45:29;;;;;;;2.17;1.20;;;9.30;99.90;;;;;;5037429;28;20135;-41
2022/12/22 11:48:24;;;;;;;2.80;1.30;;;9.30;99.90;;;;;;5060263;28;20160;-38
2022/12/22 11:50:54;;;;;;;1.23;1.13;;;9.50;99.90;;;;;;5058802;28;20581;-40
2022/12/22 11:54:12;;;;;;;2.65;1.20;;;9.40;99.90;;;;;;5057829;28;20036;-41
2022/12/22 11:56:52;;;;;;;;;;;9.40;99.90;;;;;;5044184;28;20123;-40
2022/12/22 11:59:29;;;;;;;1.80;1.33;;;9.50;99.90;;;;;;5059916;28;19991;-39
2022/12/22 12:02:06;;;;;;;1.80;1.10;;;9.50;99.90;;;;;;5060333;28;20041;-42
2022/12/22 12:04:58;;;;;;;3.08;1.70;;;9.70;99.90;;;;;;5060282;28;20100;-42
2022/12/22 12:07:40;;;;;;;2.55;1.33;;;9.80;99.90;;;;;;5062022;28;20063;-39
2022/12/22 12:10:43;;;;;;;1.80;1.27;;;9.80;99.90;;;;;;5059846;28;20590;-36
2022/12/22 12:13:24;;;;;;;2.08;0.93;;;9.80;99.90;;;;;;5072181;28;20036;-39
2022/12/22 12:15:54;;;;;;;1.35;0.90;;;9.70;99.90;;;;;;5079985;28;20028;-39
2022/12/22 12:18:53;;;;;;;4.50;1.73;;;9.70;99.90;;;;;;5083970;28;20028;-36
2022/12/22 12:21:22;;;;;;;2.35;1.00;;;9.70;99.90;;;;;;5077728;28;20576;-36
2022/12/22 12:24:06;;;;;;;;;;;9.70;99.90;;;;;;5089696;28;20471;-40
2022/12/22 12:26:40;;;;;;;3.67;1.20;;;9.70;99.90;;;;;;5078929;28;19907;-41
2022/12/22 12:29:23;;;;;;;5.00;1.13;;;9.70;99.90;;;;;;5082848;28;20033;-40
2022/12/22 12:32:14;;;;;;;2.60;1.05;;;9.80;99.90;;;;;;5078272;28;20851;-41
2022/12/22 12:34:44;;;;;;;6.47;1.50;;;9.80;99.90;;;;;;5082026;28;20499;-42
2022/12/22 12:37:32;;;;;;;5.10;1.95;;;9.90;99.90;;;;;;5082631;28;20465;-40
2022/12/22 12:40:35;;;;;;;2.38;1.42;;;10.00;99.90;;;;;;5074092;28;20028;-41
2022/12/22 12:43:02;;;;;;;4.25;0.95;;;10.00;99.90;;;;;;5079159;28;20028;-41
2022/12/22 12:45:33;;;;;;;4.15;1.48;;;9.90;99.90;;;;;;5076955;28;20048;-38
2022/12/22 12:48:21;;;;;;;1.75;1.48;;;9.90;99.90;;;;;;5088612;28;20084;-41
2022/12/22 12:50:47;;;;;;;3.28;1.30;;;10.00;99.90;;;;;;5078473;28;20032;-41
2022/12/22 12:53:14;;;;;;;3.50;1.30;;;10.00;99.90;;;;;;5081813;28;20611;-40
2022/12/22 12:55:40;;;;;;;2.97;1.30;;;10.10;99.90;;;;;;5077072;28;20036;-40
2022/12/22 12:58:09;;;;;;;6.10;1.83;;;10.00;99.90;;;;;;5085658;28;20032;-42
2022/12/22 13:00:35;;;;;;;2.13;1.17;;;10.10;99.90;;;;;;5082946;28;20039;-41
2022/12/22 13:03:33;;;;;;;2.05;1.45;;;10.10;99.90;;;;;;5081039;28;20016;-42
2022/12/22 13:06:01;;;;;;;3.03;1.25;;;10.10;99.90;;;;;;5072908;28;20056;-38
2022/12/22 13:08:28;;;;;;;2.00;0.95;;;10.00;99.90;;;;;;5086183;28;20081;-40
2022/12/22 13:10:54;;;;;;;5.53;1.20;;;10.00;99.90;;;;;;5080510;28;20542;-38
2022/12/22 13:13:22;;;;;;;2.85;1.30;;;10.00;99.90;;;;;;5084420;28;20040;-39
2022/12/22 13:16:06;;;;;;;;;;;10.00;99.90;;;;;;5075680;28;20032;-39
2022/12/22 13:18:48;;;;;;;3.72;1.42;;;10.00;99.90;;;;;;5081853;28;19917;-39
2022/12/22 13:21:24;;;;;;;3.05;1.15;;;10.10;99.90;;;;;;5075443;28;20024;-40
2022/12/22 13:24:01;;;;;;;6.50;1.33;;;10.10;99.90;;;;;;5081585;28;20079;-41
2022/12/22 13:26:36;;;;;;;2.38;0.95;;;10.20;99.90;;;;;;5087878;28;20028;-41
2022/12/22 13:29:17;;;;;;;2.30;1.23;;;10.20;99.90;;;;;;5070851;28;20564;-38
2022/12/22 13:31:46;;;;;;;2.70;0.95;;;10.10;99.90;;;;;;5074761;28;20031;-40
2022/12/22 13:34:21;;;;;;;6.70;1.50;;;10.10;99.90;;;;;;5088433;28;20099;-39
2022/12/22 13:36:48;;;;;;;3.17;1.17;;;10.00;99.90;;;;;;5087146;28;20574;-40
2022/12/22 13:39:14;;;;;;;3.75;1.20;;;10.10;99.90;;;;;;5086799;28;20105;-40
2022/12/22 13:41:43;;;;;;;5.75;1.17;;;10.10;99.90;;;;;;5080546;28;20458;-41
2022/12/22 13:44:20;;;;;;;;;;;10.20;99.90;;;;;;5085376;28;20747;-42
2022/12/22 13:46:46;;;;;;;1.73;0.98;;;10.20;99.90;;;;;;5076392;28;19913;-42
2022/12/22 13:49:18;;;;;;;7.00;1.10;;;10.30;99.90;;;;;;5078447;28;20024;-38
2022/12/22 13:51:46;;;;;;;3.25;1.17;;;10.20;99.90;;;;;;5083929;28;20088;-41
2022/12/22 13:54:21;;;;;;;4.25;1.48;;;10.10;99.90;;;;;;5083693;28;20042;-42
2022/12/22 13:56:50;;;;;;;1.10;1.00;;;10.20;99.90;;;;;;5078641;28;20036;-39
2022/12/22 13:59:30;;;;;;;2.80;1.10;;;10.20;99.90;;;;;;5079075;28;20629;-39
2022/12/22 14:02:06;;;;;;;1.80;1.00;;;10.20;99.90;;;;;;5088539;28;20047;-39
2022/12/22 14:04:32;;;;;;;5.15;1.50;;;10.10;99.90;;;;;;5073969;28;22084;-39
2022/12/22 14:07:10;;;;;;;2.58;1.20;;;10.20;99.90;;;;;;5080224;28;20036;-42
2022/12/22 14:09:35;;;;;;;2.20;1.42;;;10.30;99.90;;;;;;5082614;28;20423;-41
2022/12/22 14:12:01;;;;;;;1.02;0.90;;;10.20;99.90;;;;;;5075781;28;20025;-40
2022/12/22 14:14:36;;;;;;;3.47;1.02;;;10.10;99.90;;;;;;5084348;28;20032;-40
2022/12/22 14:17:03;;;;;;;3.17;1.20;;;10.20;99.90;;;;;;5078581;28;20025;-37
2022/12/22 14:19:36;;;;;;;7.60;1.33;;;10.30;99.90;;;;;;5086208;28;20028;-39
2022/12/22 14:22:10;;;;;;;3.83;1.08;;;10.20;99.90;;;;;;5077897;28;20039;-39
2022/12/22 14:24:54;;;;;;;4.03;1.83;;;10.20;99.90;;;;;;5080265;28;20429;-42
2022/12/22 14:27:40;;;;;;;5.03;1.70;;;10.10;99.90;;;;;;5084941;28;20028;-39
2022/12/22 14:30:17;;;;;;;3.95;1.02;;;10.40;99.90;;;;;;5078724;28;20077;-41
2022/12/22 14:32:46;;;;;;;4.20;1.58;;;10.30;99.90;;;;;;5082344;28;20032;-36
2022/12/22 14:35:20;;;;;;;7.95;1.55;;;10.40;99.90;;;;;;5080114;28;20499;-40
2022/12/22 14:38:18;;;;;;;6.90;1.90;;;10.30;99.90;;;;;;5087445;28;20115;-41
2022/12/22 14:40:44;;;;;;;5.35;1.60;;;10.20;99.90;;;;;;5081908;28;20114;-39
2022/12/22 14:43:15;;;;;;;6.60;1.60;;;10.30;99.90;;;;;;5078841;28;20046;-37
2022/12/22 14:45:42;;;;;;;4.40;1.35;;;10.20;99.90;;;;;;5078661;28;20111;-40
2022/12/22 14:48:15;;;;;;;5.63;1.95;;;10.20;99.90;;;;;;5080787;28;20032;-39
2022/12/22 14:50:48;;;;;;;3.58;1.00;;;10.20;99.90;;;;;;5085331;28;20030;-37
2022/12/22 14:53:15;;;;;;;3.08;1.38;;;10.10;99.90;;;;;;5081054;28;20020;-39
2022/12/22 14:55:47;;;;;;;6.88;2.00;;;10.10;99.90;;;;;;5077196;28;20110;-40
2022/12/22 14:58:33;;;;;;;2.60;1.27;;;10.00;99.90;;;;;;5077492;28;20032;-41
2022/12/22 15:01:20;;;;;;;13.80;2.35;;;10.30;99.90;;;;;;5072187;28;20029;-35
2022/12/22 15:04:19;;;;;;;3.60;1.40;;;10.30;99.90;;;;;;5079524;28;20028;-35
2022/12/22 15:06:46;;;;;;;4.07;1.42;;;10.30;99.90;;;;;;5083883;28;20582;-40
2022/12/22 15:09:12;;;;;;;10.45;1.88;;;10.20;99.90;;;;;;5081896;28;20024;-40
2022/12/22 15:11:41;;;;;;;5.18;1.63;;;10.20;99.90;;;;;;5074632;28;20047;-38
2022/12/22 15:14:17;;;;;;;5.68;1.98;;;10.20;99.90;;;;;;5079877;28;20085;-41
2022/12/22 15:16:47;;;;;;;6.45;1.70;;;10.30;99.90;;;;;;5080901;28;20059;-41
2022/12/22 15:19:21;;;;;;;5.70;1.80;;;10.20;99.90;;;;;;5084913;28;20378;-37
2022/12/22 15:21:47;;;;;;;6.55;2.08;;;10.30;99.90;;;;;;5087536;28;20028;-37
2022/12/22 15:24:15;;;;;;;5.80;2.80;;;10.20;99.90;;;;;;5086826;28;20401;-40
2022/12/22 15:26:42;;;;;;;4.82;1.77;;;10.30;99.90;;;;;;5088478;28;20111;-38
2022/12/22 15:29:08;;;;;;;6.00;1.60;;;10.40;99.90;;;;;;5088972;28;20676;-38
2022/12/22 15:31:34;;;;;;;2.40;1.17;;;10.30;99.90;;;;;;5078810;28;20039;-41
2022/12/22 15:34:02;;;;;;;3.83;1.08;;;10.30;99.90;;;;;;5086652;28;20056;-38
2022/12/22 15:36:28;;;;;;;;;;;10.20;99.90;;;;;;5081128;28;20525;-41
2022/12/22 15:38:53;;;;;;;2.13;1.48;;;10.20;99.90;;;;;;5084119;28;20007;-34
2022/12/22 15:41:19;;;;;;;5.32;1.63;;;10.20;99.90;;;;;;5080126;28;20493;-40
2022/12/22 15:43:45;;;;;;;3.47;1.38;;;10.10;99.90;;;;;;5090652;28;20032;-41
2022/12/22 15:46:15;;;;;;;6.05;1.90;;;10.10;99.90;;;;;;5080024;28;20027;-41
2022/12/22 15:48:42;;;;;;;4.75;1.35;;;10.20;99.90;;;;;;5089315;28;20070;-39
2022/12/22 15:51:18;;;;;;;3.95;1.23;;;10.00;99.90;;;;;;5082462;28;20658;-40
2022/12/22 15:53:44;;;;;;;5.38;1.98;;;9.90;99.90;;;;;;5082561;28;20085;-34
2022/12/22 15:56:16;;;;;;;5.82;1.92;;;10.00;99.90;;;;;;5082701;28;20111;-40
2022/12/22 15:58:45;;;;;;;5.07;1.40;;;10.00;99.90;;;;;;5083220;28;20028;-38
2022/12/22 16:01:11;;;;;;;7.38;1.45;;;10.00;99.90;;;;;;5082892;28;20032;-37
2022/12/22 16:03:37;;;;;;;9.18;1.80;;;9.90;99.90;;;;;;5080142;28;20447;-41
2022/12/22 16:06:03;;;;;;;3.65;1.65;;;9.80;99.90;;;;;;5079876;28;20040;-41
2022/12/22 16:08:36;;;;;;;7.43;1.83;;;9.90;99.90;;;;;;5080786;28;20038;-38
2022/12/22 16:11:03;;;;;;;4.72;1.10;;;10.00;99.90;;;;;;5076248;28;20063;-40
2022/12/22 16:13:29;;;;;;;5.70;1.52;;;10.00;99.90;;;;;;5086253;28;20036;-38
2022/12/22 16:15:56;;;;;;;4.60;2.03;;;10.00;99.90;;;;;;5081108;28;20098;-39
2022/12/22 16:18:22;;;;;;;8.98;2.03;;;9.90;99.90;;;;;;5086763;28;20028;-39
2022/12/22 16:20:49;;;;;;;5.03;1.27;;;10.00;99.90;;;;;;5081125;28;20035;-41
2022/12/22 16:23:34;;;;;;;4.53;1.25;;;10.00;99.90;;;;;;5084824;28;20476;-38
2022/12/22 16:26:00;;;;;;;5.13;1.73;;;10.00;99.90;;;;;;5082177;28;20017;-36
2022/12/22 16:28:26;;;;;;;6.53;1.38;;;10.10;99.90;;;;;;5081896;28;20024;-38
2022/12/22 16:30:52;;;;;;;5.20;1.40;;;10.00;99.90;;;;;;5075304;28;20028;-40
2022/12/22 16:33:18;;;;;;;4.05;1.05;;;10.00;99.90;;;;;;5085113;28;20063;-40
2022/12/22 16:35:44;;;;;;;3.03;1.40;;;9.90;99.90;;;;;;5070652;28;20115;-36
2022/12/22 16:38:10;;;;;;;2.08;1.20;;;9.90;99.90;;;;;;5082517;28;20120;-40
2022/12/22 16:40:42;;;;;;;7.75;1.85;;;9.90;99.90;;;;;;5086791;28;20036;-35
2022/12/22 16:43:15;;;;;;;2.50;1.52;;;9.90;99.90;;;;;;5083193;28;20519;-37
2022/12/22 16:45:43;;;;;;;2.67;1.00;;;9.90;99.90;;;;;;5080020;28;20524;-40
2022/12/22 16:48:15;;;;;;;7.25;1.10;;;9.80;99.90;;;;;;5080766;28;20481;-41